sensor_id;sensor_type;location;lat;lon;timestamp;pressure;altitude;pressure_sealevel;temperature;humidity
3122;BME280;1571;52.524;14.104;2022-08-01T00:00:09;100554.34;;;19.70;100.00
3122;BME280;1571;52.524;14.104;2022-08-01T00:02:38;100551.41;;;19.63;100.00
3122;BME280;1571;52.524;14.104;2022-08-01T00:05:08;100555.91;;;19.72;100.00
3122;BME280;1571;52.524;14.104;2022-08-01T00:07:37;100546.78;;;19.73;100.00
3122;BME280;1571;52.524;14.104;2022-08-01T00:10:09;100547.16;;;19.79;100.00
3122;BME280;1571;52.524;14.104;2022-08-01T00:12:37;100542.84;;;19.68;100.00
3122;BME280;1571;52.524;14.104;2022-08-01T00:15:09;100553.34;;;19.71;100.00
3122;BME280;1571;52.524;14.104;2022-08-01T00:17:38;100544.75;;;19.49;100.00
3122;BME280;1571;52.524;14.104;2022-08-01T00:20:08;100541.72;;;19.44;100.00
3122;BME280;1571;52.524;14.104;2022-08-01T00:22:38;100547.50;;;19.58;100.00
3122;BME280;1571;52.524;14.104;2022-08-01T00:25:07;100542.28;;;19.56;100.00
3122;BME280;1571;52.524;14.104;2022-08-01T00:27:35;100539.78;;;19.63;99.71
3122;BME280;1571;52.524;14.104;2022-08-01T00:30:05;100541.28;;;19.57;97.18
3122;BME280;1571;52.524;14.104;2022-08-01T00:32:42;100538.00;;;19.45;94.29
3122;BME280;1571;52.524;14.104;2022-08-01T00:35:10;100546.81;;;19.55;92.17
3122;BME280;1571;52.524;14.104;2022-08-01T00:37:38;100540.34;;;19.66;92.76
3122;BME280;1571;52.524;14.104;2022-08-01T00:40:07;100546.03;;;19.63;92.07
3122;BME280;1571;52.524;14.104;2022-08-01T00:42:36;100553.72;;;19.58;87.97
3122;BME280;1571;52.524;14.104;2022-08-01T00:45:10;100557.44;;;19.83;82.43
3122;BME280;1571;52.524;14.104;2022-08-01T00:47:38;100557.75;;;20.06;78.39
3122;BME280;1571;52.524;14.104;2022-08-01T00:50:09;100556.13;;;20.30;76.29
3122;BME280;1571;52.524;14.104;2022-08-01T00:52:39;100561.22;;;20.41;75.11
3122;BME280;1571;52.524;14.104;2022-08-01T00:55:09;100563.28;;;20.47;74.96
3122;BME280;1571;52.524;14.104;2022-08-01T00:57:41;100570.06;;;20.59;74.39
3122;BME280;1571;52.524;14.104;2022-08-01T01:00:30;100563.19;;;20.65;74.29
3122;BME280;1571;52.524;14.104;2022-08-01T01:03:01;100560.47;;;20.73;73.72
3122;BME280;1571;52.524;14.104;2022-08-01T01:05:35;100558.47;;;20.67;74.14
3122;BME280;1571;52.524;14.104;2022-08-01T01:08:13;100574.78;;;20.66;74.52
3122;BME280;1571;52.524;14.104;2022-08-01T01:10:50;100578.81;;;20.62;74.45
3122;BME280;1571;52.524;14.104;2022-08-01T01:13:23;100580.19;;;20.66;74.38
3122;BME280;1571;52.524;14.104;2022-08-01T01:15:57;100580.72;;;20.69;74.10
3122;BME280;1571;52.524;14.104;2022-08-01T01:18:31;100573.63;;;20.68;73.93
3122;BME280;1571;52.524;14.104;2022-08-01T01:21:07;100580.53;;;20.63;74.36
3122;BME280;1571;52.524;14.104;2022-08-01T01:23:50;100571.34;;;20.55;74.75
3122;BME280;1571;52.524;14.104;2022-08-01T01:26:31;100573.03;;;20.48;74.96
3122;BME280;1571;52.524;14.104;2022-08-01T01:29:09;100578.00;;;20.61;74.96
3122;BME280;1571;52.524;14.104;2022-08-01T01:31:43;100581.19;;;20.56;75.01
3122;BME280;1571;52.524;14.104;2022-08-01T01:34:13;100574.91;;;20.56;75.53
3122;BME280;1571;52.524;14.104;2022-08-01T01:36:43;100580.13;;;20.49;75.49
3122;BME280;1571;52.524;14.104;2022-08-01T01:39:15;100574.41;;;20.52;75.54
3122;BME280;1571;52.524;14.104;2022-08-01T01:41:45;100573.38;;;20.45;76.07
3122;BME280;1571;52.524;14.104;2022-08-01T01:44:16;100563.94;;;20.49;76.63
3122;BME280;1571;52.524;14.104;2022-08-01T01:46:47;100566.56;;;20.33;77.30
3122;BME280;1571;52.524;14.104;2022-08-01T01:49:19;100571.28;;;20.31;77.57
3122;BME280;1571;52.524;14.104;2022-08-01T01:51:51;100569.91;;;20.18;78.69
3122;BME280;1571;52.524;14.104;2022-08-01T01:54:31;100562.34;;;20.22;79.34
3122;BME280;1571;52.524;14.104;2022-08-01T01:57:02;100563.38;;;20.29;79.73
3122;BME280;1571;52.524;14.104;2022-08-01T01:59:35;100566.69;;;20.15;80.03
3122;BME280;1571;52.524;14.104;2022-08-01T02:02:05;100566.38;;;20.26;80.32
3122;BME280;1571;52.524;14.104;2022-08-01T02:04:39;100561.66;;;20.20;81.14
3122;BME280;1571;52.524;14.104;2022-08-01T02:07:11;100569.22;;;20.16;81.63
3122;BME280;1571;52.524;14.104;2022-08-01T02:09:42;100571.56;;;20.11;81.84
3122;BME280;1571;52.524;14.104;2022-08-01T02:12:12;100561.97;;;20.09;82.74
3122;BME280;1571;52.524;14.104;2022-08-01T02:14:44;100574.91;;;20.05;83.11
3122;BME280;1571;52.524;14.104;2022-08-01T02:17:16;100572.13;;;19.89;84.15
3122;BME280;1571;52.524;14.104;2022-08-01T02:19:46;100569.25;;;19.90;84.63
3122;BME280;1571;52.524;14.104;2022-08-01T02:22:18;100568.75;;;19.87;84.82
3122;BME280;1571;52.524;14.104;2022-08-01T02:24:50;100570.44;;;19.88;85.40
3122;BME280;1571;52.524;14.104;2022-08-01T02:27:24;100569.44;;;19.89;85.82
3122;BME280;1571;52.524;14.104;2022-08-01T02:29:58;100569.75;;;19.86;86.41
3122;BME280;1571;52.524;14.104;2022-08-01T02:32:31;100576.47;;;19.82;87.43
3122;BME280;1571;52.524;14.104;2022-08-01T02:35:01;100569.59;;;19.61;89.35
3122;BME280;1571;52.524;14.104;2022-08-01T02:37:33;100564.16;;;19.53;90.53
3122;BME280;1571;52.524;14.104;2022-08-01T02:40:10;100564.78;;;19.47;91.75
3122;BME280;1571;52.524;14.104;2022-08-01T02:42:43;100564.41;;;19.42;92.50
3122;BME280;1571;52.524;14.104;2022-08-01T02:45:13;100561.34;;;19.37;93.55
3122;BME280;1571;52.524;14.104;2022-08-01T02:47:43;100556.59;;;19.30;94.27
3122;BME280;1571;52.524;14.104;2022-08-01T02:50:13;100566.22;;;19.15;95.91
3122;BME280;1571;52.524;14.104;2022-08-01T02:52:45;100564.38;;;19.16;96.37
3122;BME280;1571;52.524;14.104;2022-08-01T02:55:16;100569.38;;;19.10;97.26
3122;BME280;1571;52.524;14.104;2022-08-01T02:57:47;100578.66;;;19.16;97.33
3122;BME280;1571;52.524;14.104;2022-08-01T03:00:19;100576.91;;;19.07;97.75
3122;BME280;1571;52.524;14.104;2022-08-01T03:02:52;100576.91;;;19.07;98.33
3122;BME280;1571;52.524;14.104;2022-08-01T03:05:24;100582.91;;;19.01;98.85
3122;BME280;1571;52.524;14.104;2022-08-01T03:07:54;100573.09;;;19.09;99.19
3122;BME280;1571;52.524;14.104;2022-08-01T03:10:29;100581.53;;;18.97;99.54
3122;BME280;1571;52.524;14.104;2022-08-01T03:13:00;100593.97;;;18.98;100.00
3122;BME280;1571;52.524;14.104;2022-08-01T03:15:32;100592.53;;;19.03;99.87
3122;BME280;1571;52.524;14.104;2022-08-01T03:18:02;100599.66;;;18.95;100.00
3122;BME280;1571;52.524;14.104;2022-08-01T03:20:33;100601.97;;;19.07;100.00
3122;BME280;1571;52.524;14.104;2022-08-01T03:23:05;100601.97;;;18.89;100.00
3122;BME280;1571;52.524;14.104;2022-08-01T03:25:36;100601.56;;;18.84;100.00
3122;BME280;1571;52.524;14.104;2022-08-01T03:28:06;100604.72;;;18.98;100.00
3122;BME280;1571;52.524;14.104;2022-08-01T03:30:38;100615.03;;;18.84;100.00
3122;BME280;1571;52.524;14.104;2022-08-01T03:33:22;100603.22;;;18.67;100.00
3122;BME280;1571;52.524;14.104;2022-08-01T03:35:53;100605.78;;;18.69;100.00
3122;BME280;1571;52.524;14.104;2022-08-01T03:38:23;100606.63;;;18.69;100.00
3122;BME280;1571;52.524;14.104;2022-08-01T03:40:56;100607.69;;;18.77;100.00
3122;BME280;1571;52.524;14.104;2022-08-01T03:43:33;100614.09;;;18.76;100.00
3122;BME280;1571;52.524;14.104;2022-08-01T03:46:07;100610.16;;;18.70;100.00
3122;BME280;1571;52.524;14.104;2022-08-01T03:48:41;100607.47;;;18.70;100.00
3122;BME280;1571;52.524;14.104;2022-08-01T03:51:11;100613.44;;;18.64;100.00
3122;BME280;1571;52.524;14.104;2022-08-01T03:53:41;100604.06;;;18.68;100.00
3122;BME280;1571;52.524;14.104;2022-08-01T03:56:11;100603.69;;;18.63;100.00
3122;BME280;1571;52.524;14.104;2022-08-01T03:58:41;100605.88;;;18.77;100.00
3122;BME280;1571;52.524;14.104;2022-08-01T04:01:17;100601.56;;;18.84;100.00
3122;BME280;1571;52.524;14.104;2022-08-01T04:03:46;100601.75;;;19.01;100.00
3122;BME280;1571;52.524;14.104;2022-08-01T04:06:15;100604.44;;;19.01;100.00
3122;BME280;1571;52.524;14.104;2022-08-01T04:08:44;100603.34;;;19.11;100.00
3122;BME280;1571;52.524;14.104;2022-08-01T04:11:23;100604.59;;;19.17;100.00
3122;BME280;1571;52.524;14.104;2022-08-01T04:13:52;100602.13;;;19.24;100.00
3122;BME280;1571;52.524;14.104;2022-08-01T04:16:22;100605.88;;;19.31;100.00
3122;BME280;1571;52.524;14.104;2022-08-01T04:18:50;100611.63;;;19.18;100.00
3122;BME280;1571;52.524;14.104;2022-08-01T04:21:22;100617.66;;;19.12;100.00
3122;BME280;1571;52.524;14.104;2022-08-01T04:23:52;100612.34;;;19.20;100.00
3122;BME280;1571;52.524;14.104;2022-08-01T04:26:22;100619.66;;;19.10;100.00
3122;BME280;1571;52.524;14.104;2022-08-01T04:28:53;100629.94;;;18.97;100.00
3122;BME280;1571;52.524;14.104;2022-08-01T04:31:24;100624.09;;;19.01;100.00
3122;BME280;1571;52.524;14.104;2022-08-01T04:33:54;100628.88;;;18.89;100.00
3122;BME280;1571;52.524;14.104;2022-08-01T04:36:24;100622.13;;;19.03;100.00
3122;BME280;1571;52.524;14.104;2022-08-01T04:38:56;100624.50;;;19.06;100.00
3122;BME280;1571;52.524;14.104;2022-08-01T04:41:25;100627.31;;;19.41;100.00
3122;BME280;1571;52.524;14.104;2022-08-01T04:43:54;100619.88;;;19.61;100.00
3122;BME280;1571;52.524;14.104;2022-08-01T04:46:24;100620.50;;;19.99;100.00
3122;BME280;1571;52.524;14.104;2022-08-01T04:48:53;100618.91;;;19.88;100.00
3122;BME280;1571;52.524;14.104;2022-08-01T04:51:21;100612.06;;;19.93;100.00
3122;BME280;1571;52.524;14.104;2022-08-01T04:53:50;100612.25;;;20.00;99.37
3122;BME280;1571;52.524;14.104;2022-08-01T04:56:19;100614.28;;;19.98;98.53
3122;BME280;1571;52.524;14.104;2022-08-01T04:58:48;100619.19;;;20.03;98.32
3122;BME280;1571;52.524;14.104;2022-08-01T05:01:50;100616.56;;;19.85;99.55
3122;BME280;1571;52.524;14.104;2022-08-01T05:04:18;100616.91;;;19.90;100.00
3122;BME280;1571;52.524;14.104;2022-08-01T05:06:46;100616.75;;;20.17;97.42
3122;BME280;1571;52.524;14.104;2022-08-01T05:09:15;100619.31;;;20.27;96.23
3122;BME280;1571;52.524;14.104;2022-08-01T05:11:43;100628.47;;;20.43;94.45
3122;BME280;1571;52.524;14.104;2022-08-01T05:14:11;100622.22;;;20.42;94.61
3122;BME280;1571;52.524;14.104;2022-08-01T05:16:40;100621.63;;;20.56;92.70
3122;BME280;1571;52.524;14.104;2022-08-01T05:19:10;100623.28;;;20.49;93.90
3122;BME280;1571;52.524;14.104;2022-08-01T05:21:38;100625.25;;;20.82;91.43
3122;BME280;1571;52.524;14.104;2022-08-01T05:24:06;100624.41;;;20.81;91.68
3122;BME280;1571;52.524;14.104;2022-08-01T05:26:35;100624.41;;;20.81;90.96
3122;BME280;1571;52.524;14.104;2022-08-01T05:29:04;100627.59;;;20.85;91.41
3122;BME280;1571;52.524;14.104;2022-08-01T05:31:33;100629.38;;;20.59;94.02
3122;BME280;1571;52.524;14.104;2022-08-01T05:34:01;100629.47;;;20.84;92.01
3122;BME280;1571;52.524;14.104;2022-08-01T05:36:31;100633.19;;;20.99;90.96
3122;BME280;1571;52.524;14.104;2022-08-01T05:38:59;100631.66;;;20.89;91.32
3122;BME280;1571;52.524;14.104;2022-08-01T05:41:27;100633.66;;;20.78;92.16
3122;BME280;1571;52.524;14.104;2022-08-01T05:43:56;100632.50;;;20.81;91.84
3122;BME280;1571;52.524;14.104;2022-08-01T05:46:24;100631.16;;;20.85;91.44
3122;BME280;1571;52.524;14.104;2022-08-01T05:48:53;100630.47;;;20.83;91.21
3122;BME280;1571;52.524;14.104;2022-08-01T05:51:22;100627.78;;;20.83;92.25
3122;BME280;1571;52.524;14.104;2022-08-01T05:53:51;100632.50;;;20.89;92.22
3122;BME280;1571;52.524;14.104;2022-08-01T05:56:20;100633.22;;;21.16;90.67
3122;BME280;1571;52.524;14.104;2022-08-01T05:58:48;100632.06;;;21.76;88.01
3122;BME280;1571;52.524;14.104;2022-08-01T06:01:17;100630.53;;;21.65;87.29
3122;BME280;1571;52.524;14.104;2022-08-01T06:03:46;100630.53;;;21.73;87.40
3122;BME280;1571;52.524;14.104;2022-08-01T06:06:14;100629.44;;;22.07;86.23
3122;BME280;1571;52.524;14.104;2022-08-01T06:08:42;100636.09;;;22.44;84.47
3122;BME280;1571;52.524;14.104;2022-08-01T06:11:12;100637.50;;;22.32;84.29
3122;BME280;1571;52.524;14.104;2022-08-01T06:13:40;100643.63;;;22.09;85.70
3122;BME280;1571;52.524;14.104;2022-08-01T06:16:15;100648.09;;;22.50;84.81
3122;BME280;1571;52.524;14.104;2022-08-01T06:18:43;100657.06;;;22.42;84.45
3122;BME280;1571;52.524;14.104;2022-08-01T06:21:11;100655.34;;;22.49;84.18
3122;BME280;1571;52.524;14.104;2022-08-01T06:23:39;100647.34;;;22.08;84.75
3122;BME280;1571;52.524;14.104;2022-08-01T06:26:09;100654.19;;;21.71;87.65
3122;BME280;1571;52.524;14.104;2022-08-01T06:28:39;100662.13;;;21.48;90.61
3122;BME280;1571;52.524;14.104;2022-08-01T06:31:07;100664.28;;;20.61;97.23
3122;BME280;1571;52.524;14.104;2022-08-01T06:33:37;100667.06;;;20.43;100.00
3122;BME280;1571;52.524;14.104;2022-08-01T06:36:05;100669.00;;;20.33;100.00
3122;BME280;1571;52.524;14.104;2022-08-01T06:38:33;100668.03;;;20.34;100.00
3122;BME280;1571;52.524;14.104;2022-08-01T06:41:01;100679.03;;;20.49;100.00
3122;BME280;1571;52.524;14.104;2022-08-01T06:43:30;100674.59;;;20.39;100.00
3122;BME280;1571;52.524;14.104;2022-08-01T06:45:59;100667.53;;;20.73;100.00
3122;BME280;1571;52.524;14.104;2022-08-01T06:48:28;100667.75;;;20.96;98.89
3122;BME280;1571;52.524;14.104;2022-08-01T06:50:56;100670.69;;;21.19;97.76
3122;BME280;1571;52.524;14.104;2022-08-01T06:53:36;100663.44;;;21.19;95.45
3122;BME280;1571;52.524;14.104;2022-08-01T06:56:05;100660.56;;;21.21;94.51
3122;BME280;1571;52.524;14.104;2022-08-01T06:58:35;100666.53;;;20.74;96.99
3122;BME280;1571;52.524;14.104;2022-08-01T07:01:05;100673.25;;;20.70;97.47
3122;BME280;1571;52.524;14.104;2022-08-01T07:03:35;100678.16;;;20.83;96.69
3122;BME280;1571;52.524;14.104;2022-08-01T07:06:22;100666.25;;;21.02;96.33
3122;BME280;1571;52.524;14.104;2022-08-01T07:08:50;100673.31;;;20.86;96.43
3122;BME280;1571;52.524;14.104;2022-08-01T07:11:18;100672.78;;;20.74;97.60
3122;BME280;1571;52.524;14.104;2022-08-01T07:13:47;100676.31;;;20.75;97.56
3122;BME280;1571;52.524;14.104;2022-08-01T07:16:17;100681.38;;;20.78;98.17
3122;BME280;1571;52.524;14.104;2022-08-01T07:18:45;100683.31;;;20.59;99.37
3122;BME280;1571;52.524;14.104;2022-08-01T07:21:13;100679.66;;;20.69;99.12
3122;BME280;1571;52.524;14.104;2022-08-01T07:24:01;100673.66;;;20.83;98.99
3122;BME280;1571;52.524;14.104;2022-08-01T07:26:41;100684.22;;;20.42;100.00
3122;BME280;1571;52.524;14.104;2022-08-01T07:29:22;100678.19;;;20.48;100.00
3122;BME280;1571;52.524;14.104;2022-08-01T07:31:51;100682.91;;;20.46;100.00
3122;BME280;1571;52.524;14.104;2022-08-01T07:34:21;100678.53;;;20.88;100.00
3122;BME280;1571;52.524;14.104;2022-08-01T07:36:50;100679.59;;;21.03;98.71
3122;BME280;1571;52.524;14.104;2022-08-01T07:39:18;100674.72;;;21.15;97.93
3122;BME280;1571;52.524;14.104;2022-08-01T07:41:46;100688.09;;;21.66;95.62
3122;BME280;1571;52.524;14.104;2022-08-01T07:44:34;100684.34;;;21.99;93.41
3122;BME280;1571;52.524;14.104;2022-08-01T07:47:04;100683.53;;;21.99;92.48
3122;BME280;1571;52.524;14.104;2022-08-01T07:49:32;100683.84;;;22.04;92.36
3122;BME280;1571;52.524;14.104;2022-08-01T07:52:07;100686.91;;;21.93;92.04
3122;BME280;1571;52.524;14.104;2022-08-01T07:54:35;100687.09;;;21.91;92.61
3122;BME280;1571;52.524;14.104;2022-08-01T07:57:03;100686.91;;;21.93;92.45
3122;BME280;1571;52.524;14.104;2022-08-01T07:59:32;100678.84;;;21.60;93.89
3122;BME280;1571;52.524;14.104;2022-08-01T08:02:00;100691.31;;;21.61;92.86
3122;BME280;1571;52.524;14.104;2022-08-01T08:04:30;100689.97;;;21.65;93.21
3122;BME280;1571;52.524;14.104;2022-08-01T08:06:58;100686.28;;;21.66;93.63
3122;BME280;1571;52.524;14.104;2022-08-01T08:09:26;100689.41;;;21.29;94.42
3122;BME280;1571;52.524;14.104;2022-08-01T08:11:54;100688.38;;;21.13;95.58
3122;BME280;1571;52.524;14.104;2022-08-01T08:14:22;100683.88;;;21.30;95.97
3122;BME280;1571;52.524;14.104;2022-08-01T08:16:58;100687.44;;;21.63;94.26
3122;BME280;1571;52.524;14.104;2022-08-01T08:19:29;100684.22;;;21.76;93.26
3122;BME280;1571;52.524;14.104;2022-08-01T08:22:05;100685.41;;;21.74;93.05
3122;BME280;1571;52.524;14.104;2022-08-01T08:24:34;100693.34;;;21.42;94.42
3122;BME280;1571;52.524;14.104;2022-08-01T08:27:12;100709.47;;;21.18;95.73
3122;BME280;1571;52.524;14.104;2022-08-01T08:29:40;100704.91;;;21.10;96.77
3122;BME280;1571;52.524;14.104;2022-08-01T08:32:09;100703.44;;;21.32;95.97
3122;BME280;1571;52.524;14.104;2022-08-01T08:34:39;100706.28;;;21.31;95.73
3122;BME280;1571;52.524;14.104;2022-08-01T08:37:07;100707.81;;;21.33;94.88
3122;BME280;1571;52.524;14.104;2022-08-01T08:39:36;100712.56;;;21.39;94.83
3122;BME280;1571;52.524;14.104;2022-08-01T08:42:09;100710.16;;;21.20;95.99
3122;BME280;1571;52.524;14.104;2022-08-01T08:44:37;100710.81;;;21.06;96.58
3122;BME280;1571;52.524;14.104;2022-08-01T08:47:11;100723.78;;;21.02;96.91
3122;BME280;1571;52.524;14.104;2022-08-01T08:49:49;100721.91;;;20.94;96.56
3122;BME280;1571;52.524;14.104;2022-08-01T08:52:18;100719.69;;;20.90;96.99
3122;BME280;1571;52.524;14.104;2022-08-01T08:54:49;100717.19;;;21.05;96.43
3122;BME280;1571;52.524;14.104;2022-08-01T08:57:19;100719.06;;;21.04;97.01
3122;BME280;1571;52.524;14.104;2022-08-01T08:59:48;100733.44;;;21.13;95.69
3122;BME280;1571;52.524;14.104;2022-08-01T09:02:18;100728.09;;;21.46;94.75
3122;BME280;1571;52.524;14.104;2022-08-01T09:04:48;100732.53;;;21.55;92.64
3122;BME280;1571;52.524;14.104;2022-08-01T09:07:17;100723.91;;;21.59;91.46
3122;BME280;1571;52.524;14.104;2022-08-01T09:09:45;100725.44;;;21.78;89.31
3122;BME280;1571;52.524;14.104;2022-08-01T09:12:16;100732.00;;;21.68;88.91
3122;BME280;1571;52.524;14.104;2022-08-01T09:14:45;100730.50;;;21.65;89.33
3122;BME280;1571;52.524;14.104;2022-08-01T09:17:14;100731.00;;;21.77;89.09
3122;BME280;1571;52.524;14.104;2022-08-01T09:19:45;100736.06;;;21.63;89.93
3122;BME280;1571;52.524;14.104;2022-08-01T09:22:17;100732.84;;;21.93;88.24
3122;BME280;1571;52.524;14.104;2022-08-01T09:25:00;100733.00;;;22.24;85.90
3122;BME280;1571;52.524;14.104;2022-08-01T09:27:29;100737.84;;;22.53;84.75
3122;BME280;1571;52.524;14.104;2022-08-01T09:30:08;100736.91;;;22.30;85.21
3122;BME280;1571;52.524;14.104;2022-08-01T09:32:55;100736.44;;;22.65;83.90
3122;BME280;1571;52.524;14.104;2022-08-01T09:35:26;100734.94;;;22.94;82.05
3122;BME280;1571;52.524;14.104;2022-08-01T09:38:16;100736.84;;;23.25;80.74
3122;BME280;1571;52.524;14.104;2022-08-01T09:40:51;100737.94;;;23.16;80.70
3122;BME280;1571;52.524;14.104;2022-08-01T09:43:21;100735.03;;;22.78;81.15
3122;BME280;1571;52.524;14.104;2022-08-01T09:45:49;100741.97;;;22.80;81.49
3122;BME280;1571;52.524;14.104;2022-08-01T09:48:20;100743.28;;;22.84;81.42
3122;BME280;1571;52.524;14.104;2022-08-01T09:50:57;100730.22;;;23.27;79.48
3122;BME280;1571;52.524;14.104;2022-08-01T09:53:42;100727.69;;;23.80;77.19
3122;BME280;1571;52.524;14.104;2022-08-01T09:56:19;100730.66;;;23.39;77.90
3122;BME280;1571;52.524;14.104;2022-08-01T09:58:55;100734.91;;;23.42;76.47
3122;BME280;1571;52.524;14.104;2022-08-01T10:01:28;100740.34;;;23.34;76.46
3122;BME280;1571;52.524;14.104;2022-08-01T10:04:09;100742.91;;;23.35;76.21
3122;BME280;1571;52.524;14.104;2022-08-01T10:06:39;100742.78;;;23.52;76.26
3122;BME280;1571;52.524;14.104;2022-08-01T10:09:12;100751.56;;;23.31;75.97
3122;BME280;1571;52.524;14.104;2022-08-01T10:11:42;100762.69;;;23.04;77.54
3122;BME280;1571;52.524;14.104;2022-08-01T10:14:11;100759.84;;;22.90;76.96
3122;BME280;1571;52.524;14.104;2022-08-01T10:16:45;100753.97;;;22.78;77.83
3122;BME280;1571;52.524;14.104;2022-08-01T10:19:21;100759.16;;;22.87;78.04
3122;BME280;1571;52.524;14.104;2022-08-01T10:21:50;100756.38;;;23.12;77.28
3122;BME280;1571;52.524;14.104;2022-08-01T10:24:27;100755.78;;;23.33;75.17
3122;BME280;1571;52.524;14.104;2022-08-01T10:26:58;100754.25;;;23.85;74.69
3122;BME280;1571;52.524;14.104;2022-08-01T10:29:43;100751.56;;;24.00;72.33
3122;BME280;1571;52.524;14.104;2022-08-01T10:32:35;100753.97;;;24.33;70.82
3122;BME280;1571;52.524;14.104;2022-08-01T10:35:06;100747.25;;;24.43;70.29
3122;BME280;1571;52.524;14.104;2022-08-01T10:37:41;100760.78;;;23.90;72.38
3122;BME280;1571;52.524;14.104;2022-08-01T10:40:19;100746.16;;;24.15;71.99
3122;BME280;1571;52.524;14.104;2022-08-01T10:42:57;100755.72;;;24.25;71.80
3122;BME280;1571;52.524;14.104;2022-08-01T10:45:26;100754.34;;;24.44;71.05
3122;BME280;1571;52.524;14.104;2022-08-01T10:47:59;100764.44;;;23.98;72.27
3122;BME280;1571;52.524;14.104;2022-08-01T10:50:33;100761.72;;;23.83;71.63
3122;BME280;1571;52.524;14.104;2022-08-01T10:53:07;100763.59;;;23.74;72.17
3122;BME280;1571;52.524;14.104;2022-08-01T10:55:52;100771.50;;;23.61;73.96
3122;BME280;1571;52.524;14.104;2022-08-01T10:58:30;100769.03;;;23.51;72.44
3122;BME280;1571;52.524;14.104;2022-08-01T11:01:14;100773.28;;;23.45;72.79
3122;BME280;1571;52.524;14.104;2022-08-01T11:03:44;100772.66;;;23.66;72.76
3122;BME280;1571;52.524;14.104;2022-08-01T11:06:34;100788.19;;;23.10;72.12
3122;BME280;1571;52.524;14.104;2022-08-01T11:09:14;100794.03;;;23.30;73.39
3122;BME280;1571;52.524;14.104;2022-08-01T11:11:59;100802.13;;;23.38;73.39
3122;BME280;1571;52.524;14.104;2022-08-01T11:14:33;100800.69;;;23.51;73.78
3122;BME280;1571;52.524;14.104;2022-08-01T11:17:31;100797.94;;;23.27;74.20
3122;BME280;1571;52.524;14.104;2022-08-01T11:20:10;100797.63;;;23.22;74.14
3122;BME280;1571;52.524;14.104;2022-08-01T11:26:11;100804.78;;;23.46;72.67
3122;BME280;1571;52.524;14.104;2022-08-01T11:28:43;100796.03;;;23.90;71.59
3122;BME280;1571;52.524;14.104;2022-08-01T11:31:32;100808.88;;;23.97;72.06
3122;BME280;1571;52.524;14.104;2022-08-01T11:34:04;100802.13;;;24.30;71.03
3122;BME280;1571;52.524;14.104;2022-08-01T11:36:32;100805.63;;;24.54;70.38
3122;BME280;1571;52.524;14.104;2022-08-01T11:39:20;100803.91;;;24.61;69.27
3122;BME280;1571;52.524;14.104;2022-08-01T11:41:50;100800.97;;;24.48;71.01
3122;BME280;1571;52.524;14.104;2022-08-01T11:44:22;100803.97;;;24.15;69.99
3122;BME280;1571;52.524;14.104;2022-08-01T11:46:58;100800.06;;;24.33;69.56
3122;BME280;1571;52.524;14.104;2022-08-01T11:49:33;100805.78;;;24.23;69.61
3122;BME280;1571;52.524;14.104;2022-08-01T11:52:06;100807.81;;;23.98;70.90
3122;BME280;1571;52.524;14.104;2022-08-01T11:54:36;100805.06;;;24.44;69.55
3122;BME280;1571;52.524;14.104;2022-08-01T11:57:06;100810.78;;;24.49;68.77
3122;BME280;1571;52.524;14.104;2022-08-01T11:59:40;100809.03;;;24.71;69.40
3122;BME280;1571;52.524;14.104;2022-08-01T12:02:39;100806.97;;;24.73;69.64
3122;BME280;1571;52.524;14.104;2022-08-01T12:05:09;100815.72;;;24.07;69.88
3122;BME280;1571;52.524;14.104;2022-08-01T12:07:41;100817.34;;;23.39;71.75
3122;BME280;1571;52.524;14.104;2022-08-01T12:10:11;100818.94;;;23.25;73.08
3122;BME280;1571;52.524;14.104;2022-08-01T12:12:43;100822.31;;;22.80;75.22
3122;BME280;1571;52.524;14.104;2022-08-01T12:15:14;100820.69;;;22.38;77.48
3122;BME280;1571;52.524;14.104;2022-08-01T12:17:45;100829.66;;;22.06;79.40
3122;BME280;1571;52.524;14.104;2022-08-01T12:20:26;100828.13;;;22.36;79.28
3122;BME280;1571;52.524;14.104;2022-08-01T12:22:57;100823.22;;;22.39;79.22
3122;BME280;1571;52.524;14.104;2022-08-01T12:25:26;100827.13;;;22.20;79.64
3122;BME280;1571;52.524;14.104;2022-08-01T12:27:54;100825.44;;;22.28;79.89
3122;BME280;1571;52.524;14.104;2022-08-01T12:30:25;100824.41;;;21.96;81.53
3122;BME280;1571;52.524;14.104;2022-08-01T12:32:54;100822.88;;;22.42;80.16
3122;BME280;1571;52.524;14.104;2022-08-01T12:35:24;100828.47;;;22.33;79.33
3122;BME280;1571;52.524;14.104;2022-08-01T12:37:54;100826.06;;;22.71;78.07
3122;BME280;1571;52.524;14.104;2022-08-01T12:40:26;100825.69;;;22.74;77.39
3122;BME280;1571;52.524;14.104;2022-08-01T12:42:56;100830.06;;;22.91;77.42
3122;BME280;1571;52.524;14.104;2022-08-01T12:45:27;100822.66;;;22.77;77.93
3122;BME280;1571;52.524;14.104;2022-08-01T12:47:57;100833.91;;;23.05;77.90
3122;BME280;1571;52.524;14.104;2022-08-01T12:50:29;100834.16;;;22.79;78.45
3122;BME280;1571;52.524;14.104;2022-08-01T12:52:59;100830.44;;;22.72;78.66
3122;BME280;1571;52.524;14.104;2022-08-01T12:55:27;100824.34;;;22.70;79.48
3122;BME280;1571;52.524;14.104;2022-08-01T12:58:06;100834.66;;;22.82;79.27
3122;BME280;1571;52.524;14.104;2022-08-01T13:00:44;100841.91;;;22.90;79.00
3122;BME280;1571;52.524;14.104;2022-08-01T13:03:14;100838.41;;;22.65;80.13
3122;BME280;1571;52.524;14.104;2022-08-01T13:05:45;100844.53;;;22.51;80.81
3122;BME280;1571;52.524;14.104;2022-08-01T13:08:15;100847.19;;;22.83;80.23
3122;BME280;1571;52.524;14.104;2022-08-01T13:10:43;100851.09;;;22.73;79.88
3122;BME280;1571;52.524;14.104;2022-08-01T13:13:13;100848.06;;;22.68;79.80
3122;BME280;1571;52.524;14.104;2022-08-01T13:16:04;100851.75;;;22.66;81.40
3122;BME280;1571;52.524;14.104;2022-08-01T13:18:38;100848.06;;;22.68;79.83
3122;BME280;1571;52.524;14.104;2022-08-01T13:21:08;100847.44;;;23.13;79.12
3122;BME280;1571;52.524;14.104;2022-08-01T13:23:37;100844.03;;;23.51;77.22
3122;BME280;1571;52.524;14.104;2022-08-01T13:26:37;100832.66;;;23.86;74.57